CYYCCYQF

Guest
Details From CYYC - CALGARY INTL
To CYQF - RED DEER REGIONAL
Flight Number -
Tags generated
Created
Modified
Stats Distance 64 nm / 119 km
Max Altitude 600 ft / 183 m
Waypoints 3
Social Downloads 0
Likes 0
Share VATSIM

Download

Looking for another format? Having issues loading an existing format? Contact us
Advertisement - Login to hide

Notes

Basic altitude profile: - Ascent Rate: 2500ft/min - Ascent Speed: 250kts - Cruise Altitude: 17000ft - Cruise Speed: 420kts - Descent Rate: 1500ft/min - Descent Speed: 250kts Options: - Use NATs: yes - Use PACOTS: yes - Use low airways: yes - Use high airways: yes

Route

CYYC YQF CYQF

ID Type Via Altitude Latitude Longitude Leg Dist Tot Dist Heading (true) Name
O CYYC APT - 0 ft / 0 m 51.11320˚ -114.02004˚ - 0 nm - CALGARY INTL
YQF NDB - 600 ft / 183 m 52.12831˚ -113.89939˚ 61 nm 61 nm 4° / 4° RED DEER NDB
O CYQF APT - 0 ft / 0 m 52.18257˚ -113.89369˚ 3 nm 64 nm 4° / 4° RED DEER REGIONAL

Altitude Profile

Advertisement - Login to hide

CYYC

Details ICAO CYYC (YYC)
Name CALGARY INTL
Region Canada
Timezone America/Edmonton (UTC-7.0)
Stats Elevation 3,557 ft / 1,084 m (AMSL)
Location 51.113197° -114.020044°
Runways 3
Magnetic Variation 14.093° E

METAR

CYYC 112100Z 23009KT 40SM BKN300 10/M09 A3030 RMK CI5 SLP302

Decode

TAF

TAF CYYC 112038Z 1121/1218 21005KT P6SM SCT300 FM121300 23005KT P6SM BKN170 FM121700 28015KT P6SM SCT250 RMK NXT FCST BY 120000Z

Decode

Departure Runways

ID Width Length Bearing (true) Bearing (mag) Surface Threshold Offset Overrun Length
07 144 ft / 44 m 6,561 ft / 2,000 m 90.76° 76.67° Asphalt 0 ft / 0 m 0 ft / 0 m
10 210 ft / 64 m 8,433 ft / 2,570 m 119.00° 104.91° Asphalt 0 ft / 0 m 0 ft / 0 m
16 200 ft / 61 m 12,703 ft / 3,872 m 179.00° 164.91° Asphalt 0 ft / 0 m 0 ft / 0 m
25 144 ft / 44 m 6,561 ft / 2,000 m 270.78° 256.69° Asphalt 0 ft / 0 m 0 ft / 0 m
28 210 ft / 64 m 8,433 ft / 2,570 m 299.02° 284.93° Asphalt 0 ft / 0 m 121 ft / 37 m
34 200 ft / 61 m 12,703 ft / 3,872 m 359.00° 344.91° Asphalt 0 ft / 0 m 0 ft / 0 m

CYQF

Details ICAO CYQF (YQF)
Name RED DEER REGIONAL
Region Canada
Timezone America/Edmonton (UTC-7.0)
Stats Elevation 2,968 ft / 905 m (AMSL)
Location 52.182568° -113.893686°
Runways 2
Magnetic Variation 14.256° E

METAR

CYQF 112100Z 21006KT 15SM FEW090 SCT250 04/M06 A3027 RMK AC1CI4 AC TR SLP296

Decode

TAF

TAF CYQF 111739Z 1118/1206 22005KT P6SM FEW150 BKN250 BECMG 1120/1122 17005KT FM120400 15005KT P6SM SKC RMK NXT FCST BY 120000Z

Decode

Destination Runways

ID Width Length Bearing (true) Bearing (mag) Surface Threshold Offset Overrun Length
11 100 ft / 30 m 3,480 ft / 1,061 m 129.84° 115.58° Asphalt 0 ft / 0 m 0 ft / 0 m
16 98 ft / 30 m 5,575 ft / 1,699 m 180.00° 165.74° Asphalt 0 ft / 0 m 0 ft / 0 m
29 100 ft / 30 m 3,480 ft / 1,061 m 309.85° 295.59° Asphalt 0 ft / 0 m 0 ft / 0 m
34 98 ft / 30 m 5,575 ft / 1,699 m 0.00° 345.74° Asphalt 0 ft / 0 m 0 ft / 0 m

Popular Alternatives